sensor_id;sensor_type;location;lat;lon;timestamp;pressure;altitude;pressure_sealevel;temperature;humidity
74327;BME280;62745;51.060;13.786;2022-08-25T00:02:03;100685.78;;;17.82;92.98
74327;BME280;62745;51.060;13.786;2022-08-25T00:04:29;100689.72;;;17.80;92.95
74327;BME280;62745;51.060;13.786;2022-08-25T00:06:55;100684.19;;;17.74;92.99
74327;BME280;62745;51.060;13.786;2022-08-25T00:09:23;100683.03;;;17.70;93.10
74327;BME280;62745;51.060;13.786;2022-08-25T00:11:49;100687.03;;;17.61;93.24
74327;BME280;62745;51.060;13.786;2022-08-25T00:14:18;100685.72;;;17.52;93.09
74327;BME280;62745;51.060;13.786;2022-08-25T00:16:45;100678.50;;;17.46;93.77
74327;BME280;62745;51.060;13.786;2022-08-25T00:19:15;100685.03;;;17.57;93.77
74327;BME280;62745;51.060;13.786;2022-08-25T00:21:41;100683.03;;;17.52;94.36
74327;BME280;62745;51.060;13.786;2022-08-25T00:24:09;100682.56;;;17.55;93.77
74327;BME280;62745;51.060;13.786;2022-08-25T00:26:38;100678.91;;;17.50;94.16
74327;BME280;62745;51.060;13.786;2022-08-25T00:29:03;100681.06;;;17.41;94.22
74327;BME280;62745;51.060;13.786;2022-08-25T00:31:29;100679.06;;;17.36;95.03
74327;BME280;62745;51.060;13.786;2022-08-25T00:33:54;100675.97;;;17.51;94.43
74327;BME280;62745;51.060;13.786;2022-08-25T00:36:20;100676.25;;;17.43;94.52
74327;BME280;62745;51.060;13.786;2022-08-25T00:38:47;100675.06;;;17.39;94.78
74327;BME280;62745;51.060;13.786;2022-08-25T00:41:19;100676.03;;;17.44;94.48
74327;BME280;62745;51.060;13.786;2022-08-25T00:43:52;100676.94;;;17.38;94.17
74327;BME280;62745;51.060;13.786;2022-08-25T00:46:22;100674.56;;;17.30;94.43
74327;BME280;62745;51.060;13.786;2022-08-25T00:48:52;100667.13;;;17.26;94.48
74327;BME280;62745;51.060;13.786;2022-08-25T00:51:27;100666.91;;;17.27;94.41
74327;BME280;62745;51.060;13.786;2022-08-25T00:53:54;100669.16;;;17.30;94.45
74327;BME280;62745;51.060;13.786;2022-08-25T00:56:20;100659.56;;;17.16;94.26
74327;BME280;62745;51.060;13.786;2022-08-25T00:58:46;100663.53;;;17.13;94.58
74327;BME280;62745;51.060;13.786;2022-08-25T01:01:11;100666.47;;;17.30;93.62
74327;BME280;62745;51.060;13.786;2022-08-25T01:03:36;100668.72;;;17.33;93.76
74327;BME280;62745;51.060;13.786;2022-08-25T01:06:03;100663.31;;;17.33;93.97
74327;BME280;62745;51.060;13.786;2022-08-25T01:08:30;100666.53;;;17.24;93.73
74327;BME280;62745;51.060;13.786;2022-08-25T01:10:58;100664.16;;;17.16;93.92
74327;BME280;62745;51.060;13.786;2022-08-25T01:13:33;100659.03;;;17.07;94.59
74327;BME280;62745;51.060;13.786;2022-08-25T01:16:00;100666.03;;;17.15;94.71
74327;BME280;62745;51.060;13.786;2022-08-25T01:18:26;100659.13;;;17.19;94.00
74327;BME280;62745;51.060;13.786;2022-08-25T01:20:57;100668.84;;;17.20;94.23
74327;BME280;62745;51.060;13.786;2022-08-25T01:23:24;100664.16;;;17.16;93.87
74327;BME280;62745;51.060;13.786;2022-08-25T01:28:19;100663.97;;;17.10;94.65
74327;BME280;62745;51.060;13.786;2022-08-25T01:30:44;100660.91;;;17.07;94.47
74327;BME280;62745;51.060;13.786;2022-08-25T01:33:11;100662.03;;;16.99;94.08
74327;BME280;62745;51.060;13.786;2022-08-25T01:35:37;100663.69;;;17.00;94.52
74327;BME280;62745;51.060;13.786;2022-08-25T01:38:04;100663.91;;;16.99;94.83
74327;BME280;62745;51.060;13.786;2022-08-25T01:40:30;100672.84;;;16.99;95.27
74327;BME280;62745;51.060;13.786;2022-08-25T01:45:30;100658.13;;;17.32;94.51
74327;BME280;62745;51.060;13.786;2022-08-25T01:47:55;100657.50;;;17.30;94.13
74327;BME280;62745;51.060;13.786;2022-08-25T01:50:21;100660.66;;;17.27;94.18
74327;BME280;62745;51.060;13.786;2022-08-25T01:55:24;100663.53;;;17.13;94.44
74327;BME280;62745;51.060;13.786;2022-08-25T01:57:49;100660.22;;;17.11;94.73
74327;BME280;62745;51.060;13.786;2022-08-25T02:00:16;100661.94;;;17.24;94.82
74327;BME280;62745;51.060;13.786;2022-08-25T02:02:41;100659.78;;;17.33;94.55
74327;BME280;62745;51.060;13.786;2022-08-25T02:05:11;100668.31;;;17.48;93.89
74327;BME280;62745;51.060;13.786;2022-08-25T02:07:42;100657.66;;;17.53;93.58
74327;BME280;62745;51.060;13.786;2022-08-25T02:10:09;100659.66;;;17.58;93.29
74327;BME280;62745;51.060;13.786;2022-08-25T02:12:36;100662.59;;;17.56;93.41
74327;BME280;62745;51.060;13.786;2022-08-25T02:15:04;100661.63;;;17.51;93.52
74327;BME280;62745;51.060;13.786;2022-08-25T02:17:30;100665.22;;;17.44;93.52
74327;BME280;62745;51.060;13.786;2022-08-25T02:19:55;100654.41;;;17.44;94.09
74327;BME280;62745;51.060;13.786;2022-08-25T02:22:22;100660.75;;;17.38;93.68
74327;BME280;62745;51.060;13.786;2022-08-25T02:24:47;100653.16;;;17.29;94.16
74327;BME280;62745;51.060;13.786;2022-08-25T02:27:12;100665.31;;;17.38;94.00
74327;BME280;62745;51.060;13.786;2022-08-25T02:29:38;100663.81;;;17.42;93.82
74327;BME280;62745;51.060;13.786;2022-08-25T02:32:03;100659.00;;;17.44;93.74
74327;BME280;62745;51.060;13.786;2022-08-25T02:34:29;100663.81;;;17.42;94.30
74327;BME280;62745;51.060;13.786;2022-08-25T02:36:54;100654.53;;;17.38;93.93
74327;BME280;62745;51.060;13.786;2022-08-25T02:39:19;100654.28;;;17.39;94.20
74327;BME280;62745;51.060;13.786;2022-08-25T02:41:44;100654.06;;;17.41;94.19
74327;BME280;62745;51.060;13.786;2022-08-25T02:44:10;100653.16;;;17.47;94.01
74327;BME280;62745;51.060;13.786;2022-08-25T02:46:36;100668.31;;;17.48;93.84
74327;BME280;62745;51.060;13.786;2022-08-25T02:49:01;100659.81;;;17.44;93.70
74327;BME280;62745;51.060;13.786;2022-08-25T02:51:27;100662.28;;;17.46;93.52
74327;BME280;62745;51.060;13.786;2022-08-25T02:53:54;100656.84;;;17.53;93.63
74327;BME280;62745;51.060;13.786;2022-08-25T02:56:21;100654.25;;;17.58;93.71
74327;BME280;62745;51.060;13.786;2022-08-25T02:58:47;100651.78;;;17.56;93.49
74327;BME280;62745;51.060;13.786;2022-08-25T03:01:14;100650.00;;;17.50;93.50
74327;BME280;62745;51.060;13.786;2022-08-25T03:03:42;100652.84;;;17.55;93.43
74327;BME280;62745;51.060;13.786;2022-08-25T03:06:09;100652.72;;;17.50;93.45
74327;BME280;62745;51.060;13.786;2022-08-25T03:08:36;100646.63;;;17.55;93.48
74327;BME280;62745;51.060;13.786;2022-08-25T03:11:03;100650.25;;;17.49;93.67
74327;BME280;62745;51.060;13.786;2022-08-25T03:13:29;100641.75;;;17.45;93.00
74327;BME280;62745;51.060;13.786;2022-08-25T03:15:54;100643.19;;;17.48;93.68
74327;BME280;62745;51.060;13.786;2022-08-25T03:18:19;100637.50;;;17.37;93.87
74327;BME280;62745;51.060;13.786;2022-08-25T03:20:47;100639.59;;;17.35;93.86
74327;BME280;62745;51.060;13.786;2022-08-25T03:23:12;100632.75;;;17.51;93.52
74327;BME280;62745;51.060;13.786;2022-08-25T03:25:39;100634.28;;;17.59;93.49
74327;BME280;62745;51.060;13.786;2022-08-25T03:28:23;100636.16;;;17.58;93.16
74327;BME280;62745;51.060;13.786;2022-08-25T03:30:49;100634.84;;;17.49;93.34
74327;BME280;62745;51.060;13.786;2022-08-25T03:33:14;100633.22;;;17.48;93.22
74327;BME280;62745;51.060;13.786;2022-08-25T03:35:39;100634.88;;;17.61;93.11
74327;BME280;62745;51.060;13.786;2022-08-25T03:38:04;100640.06;;;17.62;92.94
74327;BME280;62745;51.060;13.786;2022-08-25T03:40:30;100631.53;;;17.65;93.04
74327;BME280;62745;51.060;13.786;2022-08-25T03:42:56;100637.16;;;17.64;92.71
74327;BME280;62745;51.060;13.786;2022-08-25T03:45:23;100629.72;;;17.59;93.07
74327;BME280;62745;51.060;13.786;2022-08-25T03:47:49;100636.53;;;17.62;92.81
74327;BME280;62745;51.060;13.786;2022-08-25T03:50:16;100634.53;;;17.57;93.05
74327;BME280;62745;51.060;13.786;2022-08-25T03:52:42;100628.00;;;17.47;92.86
74327;BME280;62745;51.060;13.786;2022-08-25T03:55:09;100629.00;;;17.52;93.55
74327;BME280;62745;51.060;13.786;2022-08-25T03:57:35;100628.16;;;17.52;93.39
74327;BME280;62745;51.060;13.786;2022-08-25T04:00:00;100625.81;;;17.55;93.44
74327;BME280;62745;51.060;13.786;2022-08-25T04:02:26;100632.50;;;17.53;92.89
74327;BME280;62745;51.060;13.786;2022-08-25T04:04:52;100637.41;;;17.44;93.08
74327;BME280;62745;51.060;13.786;2022-08-25T04:07:17;100627.38;;;17.33;93.12
74327;BME280;62745;51.060;13.786;2022-08-25T04:09:42;100630.81;;;17.40;93.39
74327;BME280;62745;51.060;13.786;2022-08-25T04:12:08;100629.25;;;17.32;93.29
74327;BME280;62745;51.060;13.786;2022-08-25T04:14:33;100631.97;;;17.32;93.76
74327;BME280;62745;51.060;13.786;2022-08-25T04:16:58;100638.59;;;17.30;93.71
74327;BME280;62745;51.060;13.786;2022-08-25T04:19:24;100632.63;;;17.28;94.14
74327;BME280;62745;51.060;13.786;2022-08-25T04:21:49;100640.50;;;17.29;93.92
74327;BME280;62745;51.060;13.786;2022-08-25T04:24:15;100639.66;;;17.29;94.11
74327;BME280;62745;51.060;13.786;2022-08-25T04:26:47;100634.25;;;17.29;93.48
74327;BME280;62745;51.060;13.786;2022-08-25T04:29:17;100632.69;;;17.39;93.67
74327;BME280;62745;51.060;13.786;2022-08-25T04:31:43;100633.03;;;17.43;92.90
74327;BME280;62745;51.060;13.786;2022-08-25T04:34:11;100636.22;;;17.40;93.19
74327;BME280;62745;51.060;13.786;2022-08-25T04:36:37;100633.03;;;17.43;93.36
74327;BME280;62745;51.060;13.786;2022-08-25T04:39:02;100634.09;;;17.42;93.13
74327;BME280;62745;51.060;13.786;2022-08-25T04:41:27;100622.47;;;17.41;92.85
74327;BME280;62745;51.060;13.786;2022-08-25T04:43:56;100630.13;;;17.44;93.40
74327;BME280;62745;51.060;13.786;2022-08-25T04:46:23;100628.88;;;17.47;93.08
74327;BME280;62745;51.060;13.786;2022-08-25T04:48:51;100634.69;;;17.44;92.80
74327;BME280;62745;51.060;13.786;2022-08-25T04:51:18;100628.56;;;17.37;93.30
74327;BME280;62745;51.060;13.786;2022-08-25T04:53:44;100627.38;;;17.33;93.35
74327;BME280;62745;51.060;13.786;2022-08-25T04:56:12;100631.97;;;17.32;93.53
74327;BME280;62745;51.060;13.786;2022-08-25T04:58:38;100640.41;;;17.36;93.49
74327;BME280;62745;51.060;13.786;2022-08-25T05:01:07;100636.22;;;17.40;93.00
74327;BME280;62745;51.060;13.786;2022-08-25T05:03:33;100642.38;;;17.47;92.83
74327;BME280;62745;51.060;13.786;2022-08-25T05:05:59;100636.16;;;17.58;93.21
74327;BME280;62745;51.060;13.786;2022-08-25T05:08:24;100636.09;;;17.65;92.85
74327;BME280;62745;51.060;13.786;2022-08-25T05:10:50;100646.06;;;17.83;92.73
74327;BME280;62745;51.060;13.786;2022-08-25T05:13:17;100645.72;;;17.91;92.05
74327;BME280;62745;51.060;13.786;2022-08-25T05:15:50;100649.59;;;17.95;92.18
74327;BME280;62745;51.060;13.786;2022-08-25T05:18:16;100650.81;;;18.11;90.82
74327;BME280;62745;51.060;13.786;2022-08-25T05:20:42;100646.38;;;18.16;90.44
74327;BME280;62745;51.060;13.786;2022-08-25T05:23:08;100649.56;;;18.25;90.27
74327;BME280;62745;51.060;13.786;2022-08-25T05:25:33;100640.28;;;18.32;89.28
74327;BME280;62745;51.060;13.786;2022-08-25T05:27:59;100640.53;;;18.43;89.70
74327;BME280;62745;51.060;13.786;2022-08-25T05:30:24;100646.28;;;18.46;89.26
74327;BME280;62745;51.060;13.786;2022-08-25T05:32:49;100645.47;;;18.46;89.33
74327;BME280;62745;51.060;13.786;2022-08-25T05:35:15;100652.06;;;18.50;88.85
74327;BME280;62745;51.060;13.786;2022-08-25T05:37:40;100650.78;;;18.52;89.09
74327;BME280;62745;51.060;13.786;2022-08-25T05:40:06;100660.53;;;18.42;88.87
74327;BME280;62745;51.060;13.786;2022-08-25T05:42:32;100642.91;;;18.51;89.03
74327;BME280;62745;51.060;13.786;2022-08-25T05:44:57;100645.59;;;18.51;89.48
74327;BME280;62745;51.060;13.786;2022-08-25T05:47:23;100650.88;;;18.57;89.81
74327;BME280;62745;51.060;13.786;2022-08-25T05:49:48;100645.81;;;18.61;89.85
74327;BME280;62745;51.060;13.786;2022-08-25T05:52:13;100652.22;;;18.67;89.79
74327;BME280;62745;51.060;13.786;2022-08-25T05:54:38;100646.44;;;18.63;89.98
74327;BME280;62745;51.060;13.786;2022-08-25T05:57:04;100643.34;;;18.59;89.42
74327;BME280;62745;51.060;13.786;2022-08-25T05:59:30;100642.41;;;18.54;89.74
74327;BME280;62745;51.060;13.786;2022-08-25T06:01:55;100633.00;;;18.56;89.03
74327;BME280;62745;51.060;13.786;2022-08-25T06:04:39;100638.75;;;18.60;89.02
74327;BME280;62745;51.060;13.786;2022-08-25T06:07:04;100636.66;;;18.62;88.80
74327;BME280;62745;51.060;13.786;2022-08-25T06:09:30;100633.53;;;18.65;88.56
74327;BME280;62745;51.060;13.786;2022-08-25T06:11:55;100629.28;;;18.69;88.78
74327;BME280;62745;51.060;13.786;2022-08-25T06:14:20;100629.59;;;18.61;89.26
74327;BME280;62745;51.060;13.786;2022-08-25T06:16:46;100635.50;;;18.70;89.36
74327;BME280;62745;51.060;13.786;2022-08-25T06:19:14;100644.09;;;18.78;89.52
74327;BME280;62745;51.060;13.786;2022-08-25T06:21:39;100637.38;;;18.81;89.34
74327;BME280;62745;51.060;13.786;2022-08-25T06:24:06;100636.78;;;18.90;88.68
74327;BME280;62745;51.060;13.786;2022-08-25T06:26:31;100624.16;;;18.96;88.84
74327;BME280;62745;51.060;13.786;2022-08-25T06:28:57;100634.84;;;19.14;87.79
74327;BME280;62745;51.060;13.786;2022-08-25T06:31:22;100634.25;;;19.24;87.43
74327;BME280;62745;51.060;13.786;2022-08-25T06:33:48;100636.28;;;19.45;86.62
74327;BME280;62745;51.060;13.786;2022-08-25T06:36:14;100628.53;;;19.49;86.14
74327;BME280;62745;51.060;13.786;2022-08-25T06:38:39;100625.31;;;19.52;86.47
74327;BME280;62745;51.060;13.786;2022-08-25T06:41:06;100635.66;;;19.67;86.16
74327;BME280;62745;51.060;13.786;2022-08-25T06:43:33;100630.72;;;19.64;85.57
74327;BME280;62745;51.060;13.786;2022-08-25T06:46:07;100632.78;;;19.73;85.56
74327;BME280;62745;51.060;13.786;2022-08-25T06:48:33;100628.44;;;19.72;86.35
74327;BME280;62745;51.060;13.786;2022-08-25T06:50:58;100629.69;;;19.81;86.04
74327;BME280;62745;51.060;13.786;2022-08-25T06:53:24;100632.25;;;19.88;86.15
74327;BME280;62745;51.060;13.786;2022-08-25T06:55:56;100635.88;;;19.94;85.91
74327;BME280;62745;51.060;13.786;2022-08-25T06:58:22;100628.41;;;20.01;85.70
74327;BME280;62745;51.060;13.786;2022-08-25T07:00:47;100630.38;;;20.05;85.52
74327;BME280;62745;51.060;13.786;2022-08-25T07:03:13;100636.56;;;20.18;84.85
74327;BME280;62745;51.060;13.786;2022-08-25T07:05:38;100625.72;;;20.18;84.56
74327;BME280;62745;51.060;13.786;2022-08-25T07:08:03;100623.06;;;20.23;84.08
74327;BME280;62745;51.060;13.786;2022-08-25T07:10:28;100622.44;;;20.32;83.87
74327;BME280;62745;51.060;13.786;2022-08-25T07:12:54;100625.56;;;20.41;84.07
74327;BME280;62745;51.060;13.786;2022-08-25T07:15:19;100632.13;;;20.45;84.38
74327;BME280;62745;51.060;13.786;2022-08-25T07:17:44;100636.03;;;20.49;83.83
74327;BME280;62745;51.060;13.786;2022-08-25T07:20:10;100629.75;;;20.49;84.04
74327;BME280;62745;51.060;13.786;2022-08-25T07:22:36;100626.13;;;20.60;83.76
74327;BME280;62745;51.060;13.786;2022-08-25T07:25:01;100615.94;;;20.67;83.67
74327;BME280;62745;51.060;13.786;2022-08-25T07:27:27;100623.63;;;20.75;83.61
74327;BME280;62745;51.060;13.786;2022-08-25T07:29:52;100621.88;;;20.86;82.61
74327;BME280;62745;51.060;13.786;2022-08-25T07:32:18;100623.91;;;20.95;82.47
74327;BME280;62745;51.060;13.786;2022-08-25T07:34:43;100624.56;;;21.02;81.63
74327;BME280;62745;51.060;13.786;2022-08-25T07:37:27;100627.38;;;21.13;81.38
74327;BME280;62745;51.060;13.786;2022-08-25T07:39:52;100626.72;;;21.44;80.75
74327;BME280;62745;51.060;13.786;2022-08-25T07:42:17;100623.56;;;21.52;80.29
74327;BME280;62745;51.060;13.786;2022-08-25T07:44:42;100619.03;;;21.63;79.85
74327;BME280;62745;51.060;13.786;2022-08-25T07:47:08;100617.91;;;21.86;79.11
74327;BME280;62745;51.060;13.786;2022-08-25T07:49:33;100607.06;;;21.91;78.51
74327;BME280;62745;51.060;13.786;2022-08-25T07:51:58;100618.41;;;22.10;78.34
74327;BME280;62745;51.060;13.786;2022-08-25T07:54:23;100616.69;;;22.31;78.02
74327;BME280;62745;51.060;13.786;2022-08-25T07:56:51;100615.13;;;22.40;76.86
74327;BME280;62745;51.060;13.786;2022-08-25T07:59:16;100621.50;;;22.56;76.42
74327;BME280;62745;51.060;13.786;2022-08-25T08:01:41;100609.06;;;22.70;77.12
74327;BME280;62745;51.060;13.786;2022-08-25T08:04:07;100614.25;;;22.71;76.43
74327;BME280;62745;51.060;13.786;2022-08-25T08:06:32;100612.56;;;22.65;76.65
74327;BME280;62745;51.060;13.786;2022-08-25T08:08:57;100608.84;;;22.81;76.62
74327;BME280;62745;51.060;13.786;2022-08-25T08:11:27;100610.91;;;23.11;75.75
74327;BME280;62745;51.060;13.786;2022-08-25T08:13:54;100611.25;;;23.30;75.69
74327;BME280;62745;51.060;13.786;2022-08-25T08:16:22;100605.59;;;23.47;75.07
74327;BME280;62745;51.060;13.786;2022-08-25T08:18:47;100614.66;;;23.58;74.10
74327;BME280;62745;51.060;13.786;2022-08-25T08:21:18;100611.63;;;23.54;73.57
74327;BME280;62745;51.060;13.786;2022-08-25T08:23:44;100604.88;;;23.72;72.82
74327;BME280;62745;51.060;13.786;2022-08-25T08:26:10;100593.91;;;23.67;72.63
74327;BME280;62745;51.060;13.786;2022-08-25T08:28:35;100605.94;;;23.66;73.49
74327;BME280;62745;51.060;13.786;2022-08-25T08:31:01;100589.03;;;23.69;73.56
74327;BME280;62745;51.060;13.786;2022-08-25T08:33:26;100598.53;;;23.56;73.93
74327;BME280;62745;51.060;13.786;2022-08-25T08:36:01;100593.91;;;23.67;72.57
74327;BME280;62745;51.060;13.786;2022-08-25T08:38:29;100592.84;;;23.83;72.61
74327;BME280;62745;51.060;13.786;2022-08-25T08:47:03;100587.13;;;23.95;71.84
74327;BME280;62745;51.060;13.786;2022-08-25T08:49:36;100584.94;;;23.97;71.44
74327;BME280;62745;51.060;13.786;2022-08-25T08:52:05;100586.31;;;24.10;71.10
74327;BME280;62745;51.060;13.786;2022-08-25T08:54:35;100574.03;;;24.17;70.89
74327;BME280;62745;51.060;13.786;2022-08-25T08:57:15;100577.06;;;24.36;70.73
74327;BME280;62745;51.060;13.786;2022-08-25T08:59:50;100572.38;;;24.57;70.70
74327;BME280;62745;51.060;13.786;2022-08-25T09:02:50;100564.44;;;24.60;69.13
74327;BME280;62745;51.060;13.786;2022-08-25T09:05:16;100561.97;;;24.64;69.81
74327;BME280;62745;51.060;13.786;2022-08-25T09:07:53;100558.94;;;24.71;69.74
74327;BME280;62745;51.060;13.786;2022-08-25T09:10:19;100560.00;;;24.80;68.80
74327;BME280;62745;51.060;13.786;2022-08-25T09:13:10;100566.25;;;24.90;69.05
74327;BME280;62745;51.060;13.786;2022-08-25T09:15:48;100564.31;;;25.01;69.67
74327;BME280;62745;51.060;13.786;2022-08-25T09:24:00;100554.78;;;24.88;67.96
74327;BME280;62745;51.060;13.786;2022-08-25T09:26:41;100552.56;;;25.01;68.34
74327;BME280;62745;51.060;13.786;2022-08-25T09:29:13;100553.28;;;25.16;68.29
74327;BME280;62745;51.060;13.786;2022-08-25T09:31:39;100553.81;;;25.24;68.05
74327;BME280;62745;51.060;13.786;2022-08-25T09:34:27;100539.28;;;25.28;67.34
74327;BME280;62745;51.060;13.786;2022-08-25T09:36:55;100537.22;;;25.10;68.25
74327;BME280;62745;51.060;13.786;2022-08-25T09:39:20;100531.00;;;25.43;67.46
74327;BME280;62745;51.060;13.786;2022-08-25T09:41:52;100537.69;;;25.61;67.24
74327;BME280;62745;51.060;13.786;2022-08-25T09:44:25;100523.91;;;26.11;65.09
74327;BME280;62745;51.060;13.786;2022-08-25T09:46:58;100529.38;;;26.63;62.92
74327;BME280;62745;51.060;13.786;2022-08-25T09:49:38;100516.59;;;26.78;63.10
74327;BME280;62745;51.060;13.786;2022-08-25T09:54:52;100514.25;;;26.90;62.46
74327;BME280;62745;51.060;13.786;2022-08-25T09:57:35;100510.75;;;26.84;62.28
74327;BME280;62745;51.060;13.786;2022-08-25T10:00:14;100507.78;;;27.05;61.30
74327;BME280;62745;51.060;13.786;2022-08-25T10:02:42;100495.97;;;27.04;60.01
74327;BME280;62745;51.060;13.786;2022-08-25T10:05:20;100499.56;;;27.05;60.29
74327;BME280;62745;51.060;13.786;2022-08-25T10:07:53;100489.84;;;27.12;58.72
74327;BME280;62745;51.060;13.786;2022-08-25T10:10:31;100492.50;;;27.17;59.91
74327;BME280;62745;51.060;13.786;2022-08-25T10:12:57;100492.28;;;27.33;59.71
74327;BME280;62745;51.060;13.786;2022-08-25T10:15:30;100480.03;;;27.44;58.04
74327;BME280;62745;51.060;13.786;2022-08-25T10:21:11;100475.59;;;27.48;56.49
74327;BME280;62745;51.060;13.786;2022-08-25T10:23:41;100470.09;;;27.67;54.90
74327;BME280;62745;51.060;13.786;2022-08-25T10:29:41;100460.59;;;27.92;55.56
74327;BME280;62745;51.060;13.786;2022-08-25T10:32:42;100453.41;;;28.23;54.36
74327;BME280;62745;51.060;13.786;2022-08-25T10:35:21;100456.88;;;28.56;53.47
74327;BME280;62745;51.060;13.786;2022-08-25T10:38:01;100449.88;;;29.00;52.35
74327;BME280;62745;51.060;13.786;2022-08-25T10:40:50;100449.13;;;29.44;50.58
74327;BME280;62745;51.060;13.786;2022-08-25T10:46:24;100450.06;;;29.03;51.88
74327;BME280;62745;51.060;13.786;2022-08-25T10:51:32;100437.06;;;28.95;50.99
74327;BME280;62745;51.060;13.786;2022-08-25T10:56:36;100433.72;;;29.21;51.69
74327;BME280;62745;51.060;13.786;2022-08-25T11:08:24;100418.75;;;29.35;50.47
74327;BME280;62745;51.060;13.786;2022-08-25T11:11:02;100418.22;;;29.47;50.26
74327;BME280;62745;51.060;13.786;2022-08-25T11:13:54;100413.94;;;30.26;49.22
74327;BME280;62745;51.060;13.786;2022-08-25T11:16:33;100406.81;;;30.24;48.37
74327;BME280;62745;51.060;13.786;2022-08-25T11:19:08;100405.22;;;30.49;49.03
74327;BME280;62745;51.060;13.786;2022-08-25T11:24:26;100397.44;;;29.94;48.38
74327;BME280;62745;51.060;13.786;2022-08-25T11:26:55;100403.34;;;29.48;49.23
74327;BME280;62745;51.060;13.786;2022-08-25T11:29:24;100402.63;;;29.96;47.98
74327;BME280;62745;51.060;13.786;2022-08-25T11:31:52;100400.59;;;30.67;45.82
74327;BME280;62745;51.060;13.786;2022-08-25T11:34:18;100390.81;;;30.61;46.14
74327;BME280;62745;51.060;13.786;2022-08-25T11:37:06;100387.72;;;30.54;46.28
74327;BME280;62745;51.060;13.786;2022-08-25T11:40:03;100387.63;;;30.76;46.55
74327;BME280;62745;51.060;13.786;2022-08-25T11:45:34;100383.38;;;31.05;46.10
74327;BME280;62745;51.060;13.786;2022-08-25T11:48:36;100381.09;;;31.16;46.06
74327;BME280;62745;51.060;13.786;2022-08-25T11:51:07;100386.53;;;31.67;44.09
74327;BME280;62745;51.060;13.786;2022-08-25T11:53:37;100378.44;;;32.09;43.43
74327;BME280;62745;51.060;13.786;2022-08-25T11:56:09;100385.06;;;32.46;43.56
74327;BME280;62745;51.060;13.786;2022-08-25T12:01:59;100365.09;;;31.73;43.92
74327;BME280;62745;51.060;13.786;2022-08-25T12:09:27;100360.84;;;30.86;45.52
74327;BME280;62745;51.060;13.786;2022-08-25T12:11:54;100359.06;;;30.64;46.00
74327;BME280;62745;51.060;13.786;2022-08-25T12:27:28;100333.50;;;29.44;49.42
74327;BME280;62745;51.060;13.786;2022-08-25T12:30:22;100339.13;;;29.39;49.04
74327;BME280;62745;51.060;13.786;2022-08-25T12:35:55;100336.00;;;30.60;46.17
74327;BME280;62745;51.060;13.786;2022-08-25T12:38:39;100324.25;;;30.11;47.28
74327;BME280;62745;51.060;13.786;2022-08-25T12:41:08;100327.41;;;30.61;45.95
74327;BME280;62745;51.060;13.786;2022-08-25T12:43:39;100328.84;;;30.41;45.60
74327;BME280;62745;51.060;13.786;2022-08-25T12:51:24;100316.88;;;32.29;41.75
74327;BME280;62745;51.060;13.786;2022-08-25T12:53:51;100320.91;;;32.95;40.22
74327;BME280;62745;51.060;13.786;2022-08-25T12:56:41;100319.59;;;33.25;38.65
74327;BME280;62745;51.060;13.786;2022-08-25T12:59:16;100302.69;;;34.24;35.55
74327;BME280;62745;51.060;13.786;2022-08-25T13:02:05;100303.00;;;33.95;36.67
74327;BME280;62745;51.060;13.786;2022-08-25T13:07:27;100309.13;;;32.44;40.27
74327;BME280;62745;51.060;13.786;2022-08-25T13:12:58;100297.88;;;32.19;40.88
74327;BME280;62745;51.060;13.786;2022-08-25T13:18:18;100303.09;;;32.63;39.56
74327;BME280;62745;51.060;13.786;2022-08-25T13:20:45;100291.19;;;33.61;36.31
74327;BME280;62745;51.060;13.786;2022-08-25T13:23:16;100288.19;;;34.55;33.94
74327;BME280;62745;51.060;13.786;2022-08-25T13:25:50;100283.06;;;34.97;33.94
74327;BME280;62745;51.060;13.786;2022-08-25T13:28:23;100270.22;;;35.84;33.02
74327;BME280;62745;51.060;13.786;2022-08-25T13:31:02;100268.22;;;35.84;33.00
74327;BME280;62745;51.060;13.786;2022-08-25T13:33:28;100267.88;;;34.79;35.23
74327;BME280;62745;51.060;13.786;2022-08-25T13:35:56;100259.94;;;34.93;35.71
74327;BME280;62745;51.060;13.786;2022-08-25T13:39:11;100257.22;;;35.41;34.48
74327;BME280;62745;51.060;13.786;2022-08-25T13:41:44;100256.50;;;34.84;35.25
74327;BME280;62745;51.060;13.786;2022-08-25T13:44:11;100264.63;;;34.77;35.94
74327;BME280;62745;51.060;13.786;2022-08-25T13:46:36;100262.06;;;34.56;35.52
74327;BME280;62745;51.060;13.786;2022-08-25T13:49:04;100261.44;;;33.25;37.48
74327;BME280;62745;51.060;13.786;2022-08-25T13:51:30;100264.72;;;32.61;38.92
74327;BME280;62745;51.060;13.786;2022-08-25T13:54:01;100255.38;;;32.03;41.24
74327;BME280;62745;51.060;13.786;2022-08-25T13:56:34;100256.13;;;31.53;42.10
74327;BME280;62745;51.060;13.786;2022-08-25T13:59:03;100249.03;;;31.82;41.41
74327;BME280;62745;51.060;13.786;2022-08-25T14:01:33;100246.03;;;33.36;37.97
74327;BME280;62745;51.060;13.786;2022-08-25T14:12:25;100239.16;;;34.59;34.59
74327;BME280;62745;51.060;13.786;2022-08-25T14:15:06;100253.69;;;34.28;36.37
74327;BME280;62745;51.060;13.786;2022-08-25T14:17:32;100241.47;;;34.57;36.15
74327;BME280;62745;51.060;13.786;2022-08-25T14:19:58;100242.88;;;34.11;36.51
74327;BME280;62745;51.060;13.786;2022-08-25T14:22:23;100228.38;;;33.77;37.71
74327;BME280;62745;51.060;13.786;2022-08-25T14:24:50;100240.72;;;33.68;38.29
74327;BME280;62745;51.060;13.786;2022-08-25T14:27:16;100235.44;;;34.83;35.87
74327;BME280;62745;51.060;13.786;2022-08-25T14:29:42;100228.38;;;33.77;38.04